Terminal Aerodrome Forecast
Issued by NWS

Home | Current Version | Previous Version | Text Only | Print | Product List | Glossary On
Versions: 1 2 3 4 5 6 7 8 9 10 11 12 13 14
286
FTUS46 KMFR 061140
TAFRBG
TAF
KRBG 061140Z 0612/0712 35003KT P6SM OVC040
     FM061700 01010KT P6SM BKN025 BKN040
     FM061900 01012G20KT P6SM SCT025 SCT040
     FM070300 35007KT P6SM FEW050 SCT250=

USA.gov is the U.S. government's official web portal to all federal, state and local government web resources and services.